Aérodrome :
LOGIN :

S'inscrire | Disclaimer

   EN    FR    IT 

 










Légende :    VFR   VFR Marginal   IFR   IFR Intensif   IFR Très Intensif
Visi : 
Plafond : 
>= 8 km
>= 3000ft
5 à 8 km
1000 à 3000 ft
1500m à 5 km
500 à 1000 ft
800 à 1500m
200 à 500 ft
< 800m
< 200 ft
Symboles :   Orages  Brouillard  Fortes neiges  Fortes précipitations  Vent > 20 kt
SIGMETs :   Divers  Orages  Givrage  Turbulence  Onde Orograph.  Cendres Volcan.







- Altitude de l'aérodrome : 18 ft
- Code IATA : AJA
- Voir les cartes d'approche


LFKJ - Ajaccio

DERNIER METAR :
  • 152200Z AUTO 05007KT CAVOK 04/02 Q1020 NOSIG

METARs EXPIRÉS :
  • 152130Z AUTO 04004KT CAVOK 05/02 Q1020 NOSIG
  • 152100Z AUTO 04005KT CAVOK 05/02 Q1020 NOSIG
  • 152030Z AUTO 05006KT CAVOK 05/02 Q1020 NOSIG
  • 152000Z AUTO 04006KT CAVOK 05/02 Q1020 NOSIG

TAF TAF LFKJ
Valide du 15 à 21h jusqu'au 16 à 21h UTC


152000Z 1521/1621 04005KT CAVOK
BECMG 1605/1607 BKN030 BKN060
TEMPO 1612/1621 -RA BKN014 BKN025
BECMG 1612/1614 16010KT
BECMG 1618/1620 24015KT
ATIS : +33 4 95 23 59 85
Pas de NOTAMs connus pour ce terrain.



MET'MAP, la Météo Aéronautique d'un coup d'oeil ! - Copyright ORBIFLY Décembre 2007 - Disclaimer

ORBIFLY MET'MAP TEAM :

Programmation & Développement : Alexandra Zaïnal
Conception & Développement : Baudouin d'Aumeries
Co-Programmation & Développement : Marc-Olivier Méhu
Soutien technique & logistique : Manuel Goepfert

Contact : metmap@orbifly.com




SOURCES & CREDITS :

   NOAA